Salisbury, MD

10:24 AM EDT on August 28, 2015 (GMT -0400)
Pemberton | | Change Station
CLOSE
Current Station
Personal Weather Station
Location: Salisbury, MD
Elevation: 26 ft
Nearby Weather Stations

Elev 26 ft 38.36 °N, 75.62 °W | Updated 1 second ago

Clear
Clear
76.2 °F
Feels Like 78 °F
N
3.7
Wind Variable Wind from NNW
Gusts 9.0 mph

Today
High -- | Low -- °F
--% Chance of Precip.
Yesterday
High -- | Low -- °F
Precip. -- in
6:28 AM 7:38 PM
Waxing Gibbous, 98% visible
Pressure 30.21 in
Visibility 10.0 miles
Clouds Clear
Heat Index 78 °F
Dew Point 60 °F
Humidity 58%
Rainfall 0.00 in
Snow Depth Not available.
UV 5 out of 12
Pollen 9.40 out of 12
Air Quality Not available.
Flu Activity Not available.
METAR KSBY 281354Z 02007KT 10SM CLR 24/16 A3020 RMK AO2 SLP228 T02390161
Pressure 30.21 in
Visibility 10.0 miles
Clouds Clear
Heat Index 78 °F
Dew Point 60 °F
Humidity 58%
Rainfall 0.00 in
Snow Depth Not available.
UV 5 out of 12
Pollen 9.40 out of 12
Air Quality Not available.
Flu Activity Not available.
METAR KSBY 281354Z 02007KT 10SM CLR 24/16 A3020 RMK AO2 SLP228 T02390161

10-Day Weather Forecast

×

Almanac

Astronomy

Aug. 28, 2015 Rise Set
Actual Time
Civil Twilight
Nautical Twilight
Astronomical Twilight
Moon
Length of Visible Light
Length of Day
Tomorrow will be .
, % of the Moon is Illuminated

Today's Extremes

State Highs State Lows

Community

WunderPhotos

Upload Photos

1,850,381 photos uploaded!

WunderBlogs® & News

Nearby

Air Quality

  Air Quality AQ Index Pollutant
Not available.

Snow Depth

Station Depth Elevation

Earthquake Activity

City Distance Mag. Time & Date
Minimum magnitude displayed is 2.5.

Coastal Water Temperatures

Place Temperature

Stations

Nearby Weather Stations

Station Location Temp. Windchill Dew Point Humidity Wind Precip. Elev Updated Type